PAYA

Yakutat Airport

Yakutat, Alaska, USA
PAYA 191728Z 1918/2018 24007KT P6SM SKC FM192300 32009KT P6SM SKC FM200600 00000KT 2SM BR BCFG SCT001 FM200900 00000KT P6SM FEW001 AMD LTD TO CLD VIS AND WIND
Issued Valid From Valid To
Sep-19 @ 17:28 UTC
(5 hours ago)
Sep-19 @ 18:00 UTC
(5 hours ago)
Sep-20 @ 18:00 UTC
(in 19 hours)
Sep-19 @ 18:00 to Sep-19 @ 23:00
PAYA 191728Z 1918/2018 24007KT P6SM SKC
Wind Visibility Clouds
240° at 7 knots Greater than 6 miles
  • Clear skies
From Sep-19 @ 23:00 to Sep-20 @ 06:00
FM192300 32009KT P6SM SKC
Wind Visibility Clouds
320° at 9 knots Greater than 6 miles
  • Clear skies
From Sep-20 @ 06:00 to Sep-20 @ 09:00
FM200600 00000KT 2SM BR BCFG SCT001
Visibility Clouds Conditions
2 miles
  • Scattered at 100' AGL
  • Mist
  • Patches of
  • Fog
From Sep-20 @ 09:00 to Sep-20 @ 18:00
FM200900 00000KT P6SM FEW001 AMD LTD TO CLD VIS AND WIND
Visibility Clouds
Greater than 6 miles
  • Few at 100' AGL
PAYA 191728Z 1918/2018 24007KT P6SM SKC FM192300 32009KT P6SM SKC FM200600 00000KT 2SM BR BCFG SCT001 FM200900 00000KT P6SM FEW001 AMD LTD TO CLD VIS AND WIND
Issued Sep-19 @ 17:28 UTC
(5 hours ago)
Valid From Sep-19 @ 18:00 UTC
(5 hours ago)
Valid To Sep-20 @ 18:00 UTC
(in 19 hours)
Sep-19 @ 18:00 - Sep-19 @ 23:00
Wind Visibility
240° at 7 knots Greater than 6 miles
Clouds
  • Clear skies
From Sep-19 @ 23:00 - Sep-20 @ 06:00
Wind Visibility
320° at 9 knots Greater than 6 miles
Clouds
  • Clear skies
From Sep-20 @ 06:00 - Sep-20 @ 09:00
Clouds
  • Scattered at 100' AGL
Conditions
  • Mist
  • Patches of
  • Fog
From Sep-20 @ 09:00 - Sep-20 @ 18:00
Clouds
  • Few at 100' AGL